Impacts TAF Board
For situational awareness. Not to be used for flight planning purposes.
IDs:

KMSY - New Orleans/Armstron, LA, US

Issued at 0520 UTC 18 Sep 2021
Updated at 0808 UTC 18 Sep 2021
Potential Impact None Slight Moderate High
Time0753Z 18/09Z 18/10Z 18/11Z 18/12Z 18/13Z 18/14Z 18/15Z 18/16Z 18/17Z 18/18Z 18/19Z 18/20Z 18/21Z>>
Type OBS PRVL PRVL PRVL PRVL PRVL PRVL PRVL PRVL PRVL PRVL PRVL PRVL PRVL
VIS 10 >6 >6 >6 >6 >6 >6 >6 >6 >6 5 5 5 5
CIG 60 -- 20 20 20 20 20 20 20 20 25 25 25 25
Cover BKN SCT OVC OVC OVC OVC OVC OVC OVC OVC OVC OVC OVC OVC
FltCat VFR VFR MVFR MVFR MVFR MVFR MVFR MVFR MVFR MVFR MVFR MVFR MVFR MVFR
WX -- -- -- -- -- -- -- -- -- -- -SHRA BR VCTS -SHRA BR VCTS -SHRA BR VCTS -SHRA BR VCTS
WDir 160 100 160 160 160 160 160 160 160 160 160 160 160 160
WSpd 3 7 5 5 5 5 5 5 5 5 7 7 7 7
WGst -- -- -- -- -- -- -- -- -- -- -- -- -- --
Raw TAF
KMSY 180520Z 1806/1912 10007KT P6SM FEW010 SCT015
  FM181000 16005KT P6SM OVC020
  FM181800 16007KT 5SM -SHRA BR VCTS SCT020CB OVC025
  FM190300 VRB04KT P6SM BKN020


Raw METAR
KMSY 180753Z COR 16003KT 10SM SCT010 BKN060 BKN180 24/23 A3001 RMK SLP164 T0244033
KMSY 180653Z COR 14005KT 10SM SCT010 BKN060 BKN180 24/23 A3002 RMK SLP168 T0244033
KMSY 180553Z COR 10004KT 10SM SCT010 BKN060 BKN180 24/23 A3002 RMK SLP168 T02440228 10256 20239 402890239 51008

METAR Board
Radar Display
Forecast Discussion
For situational awareness. Not to be used for flight planning purposes.